Time;durP1;ratioP1;P1;durP2;ratioP2;P2;SDS_P1;SDS_P2;PMS_P1;PMS_P2;Temp;Humidity;BMP_temperature;BMP_pressure;BME280_temperature;BME280_humidity;BME280_pressure;Samples;Min_cycle;Max_cycle;Signal;HPM_P1;HPM_P2
2023/12/14 00:01:55;;;;;;;7.90;4.07;;;;;;;;;;6193825;23;20012;-84
2023/12/14 00:04:21;;;;;;;7.22;3.78;;;;;;;;;;6192671;23;20013;-84
2023/12/14 00:06:47;;;;;;;9.20;4.10;;;;;;;;;;6192940;23;20013;-84
2023/12/14 00:09:14;;;;;;;8.25;4.63;;;;;;;;;;6193395;23;20058;-84
2023/12/14 00:11:40;;;;;;;9.88;4.72;;;;;;;;;;6219576;23;20027;-84
2023/12/14 00:14:06;;;;;;;7.28;4.28;;;;;;;;;;6195725;23;20341;-84
2023/12/14 00:16:32;;;;;;;7.85;5.10;;;;;;;;;;6195405;23;20034;-84
2023/12/14 00:18:58;;;;;;;9.15;4.68;;;;;;;;;;6194807;23;20027;-84
2023/12/14 00:21:24;;;;;;;8.27;5.00;;;;;;;;;;6195060;23;20019;-84
2023/12/14 00:23:50;;;;;;;7.80;4.40;;;;;;;;;;6194449;23;20023;-84
2023/12/14 00:26:19;;;;;;;8.13;4.45;;;;;;;;;;6219583;23;20017;-84
2023/12/14 00:28:45;;;;;;;7.82;4.80;;;;;;;;;;6220276;23;20049;-84
2023/12/14 00:31:11;;;;;;;7.85;4.63;;;;;;;;;;6194994;23;20019;-84
2023/12/14 00:33:37;;;;;;;8.15;5.05;;;;;;;;;;6194651;23;20094;-84
2023/12/14 00:36:04;;;;;;;7.47;4.97;;;;;;;;;;6194973;23;20024;-84
2023/12/14 00:38:30;;;;;;;6.97;4.95;;;;;;;;;;6219673;23;20018;-84
2023/12/14 00:40:56;;;;;;;6.68;4.38;;;;;;;;;;6220006;23;20058;-84
2023/12/14 00:43:22;;;;;;;7.60;4.40;;;;;;;;;;6195025;23;20416;-84
2023/12/14 00:45:48;;;;;;;8.38;4.55;;;;;;;;;;6194709;23;20074;-84
2023/12/14 00:48:14;;;;;;;9.13;5.13;;;;;;;;;;6195254;23;20340;-84
2023/12/14 00:50:40;;;;;;;7.97;4.63;;;;;;;;;;6194681;23;20016;-84
2023/12/14 00:53:06;;;;;;;8.23;4.40;;;;;;;;;;6194333;23;20101;-84
2023/12/14 00:55:32;;;;;;;8.48;4.88;;;;;;;;;;6219251;23;20034;-84
2023/12/14 00:57:58;;;;;;;7.85;4.50;;;;;;;;;;6194662;23;20020;-84
2023/12/14 01:00:25;;;;;;;8.20;4.95;;;;;;;;;;6194610;23;20023;-84
2023/12/14 01:02:51;;;;;;;7.60;4.80;;;;;;;;;;6194466;23;20016;-84
2023/12/14 01:05:17;;;;;;;7.90;4.70;;;;;;;;;;6194910;23;20012;-84
2023/12/14 01:07:43;;;;;;;9.68;4.85;;;;;;;;;;6193952;23;20294;-84
2023/12/14 01:10:09;;;;;;;9.80;5.50;;;;;;;;;;6194617;23;20020;-84
2023/12/14 01:12:35;;;;;;;10.95;5.50;;;;;;;;;;6194825;23;20012;-84
2023/12/14 01:15:02;;;;;;;11.13;5.40;;;;;;;;;;6194372;23;20016;-84
2023/12/14 01:17:28;;;;;;;12.13;6.03;;;;;;;;;;6194677;23;20016;-84
2023/12/14 01:19:54;;;;;;;9.40;5.38;;;;;;;;;;6194396;23;20344;-84
2023/12/14 01:22:21;;;;;;;10.82;5.53;;;;;;;;;;6194509;23;20042;-84
2023/12/14 01:24:47;;;;;;;10.55;5.82;;;;;;;;;;6194725;23;20023;-84
2023/12/14 01:27:13;;;;;;;9.70;5.38;;;;;;;;;;6194082;23;20016;-84
2023/12/14 01:29:39;;;;;;;8.90;5.05;;;;;;;;;;6194052;23;20024;-84
2023/12/14 01:32:06;;;;;;;10.95;5.72;;;;;;;;;;6194943;23;20463;-84
2023/12/14 01:34:32;;;;;;;11.55;6.13;;;;;;;;;;6219668;23;20016;-84
2023/12/14 01:36:58;;;;;;;12.77;5.90;;;;;;;;;;6194474;23;20065;-84
2023/12/14 01:39:24;;;;;;;10.32;5.97;;;;;;;;;;6193894;23;20433;-84
2023/12/14 01:41:50;;;;;;;9.40;5.13;;;;;;;;;;6194179;23;20051;-84
2023/12/14 01:44:16;;;;;;;10.75;5.38;;;;;;;;;;6194236;23;20347;-84
2023/12/14 01:46:42;;;;;;;13.27;5.50;;;;;;;;;;6194764;23;20020;-84
2023/12/14 01:49:08;;;;;;;13.25;4.85;;;;;;;;;;6193968;23;20038;-84
2023/12/14 01:51:35;;;;;;;10.15;4.68;;;;;;;;;;6194253;23;20042;-84
2023/12/14 01:54:01;;;;;;;9.43;5.25;;;;;;;;;;6219271;23;20027;-84
2023/12/14 01:56:29;;;;;;;10.05;5.38;;;;;;;;;;6194374;23;20023;-84
2023/12/14 01:58:55;;;;;;;9.63;5.75;;;;;;;;;;6218980;23;20070;-84
2023/12/14 02:01:38;;;;;;;13.77;5.75;;;;;;;;;;6194292;23;20441;-84
2023/12/14 02:04:08;;;;;;;12.15;6.13;;;;;;;;;;6194095;23;20416;-84
2023/12/14 02:06:34;;;;;;;14.13;6.90;;;;;;;;;;6218788;23;20035;-84
2023/12/14 02:09:00;;;;;;;12.73;6.43;;;;;;;;;;6194291;23;20055;-84
2023/12/14 02:11:26;;;;;;;13.50;6.80;;;;;;;;;;6193983;23;20016;-84
2023/12/14 02:13:52;;;;;;;12.30;6.43;;;;;;;;;;6193987;23;20024;-84
2023/12/14 02:16:18;;;;;;;12.18;6.70;;;;;;;;;;6194373;23;20035;-84
2023/12/14 02:18:45;;;;;;;13.07;6.75;;;;;;;;;;6194057;23;20475;-84
2023/12/14 02:21:11;;;;;;;14.80;6.80;;;;;;;;;;6194286;23;20515;-84
2023/12/14 02:23:46;;;;;;;14.13;7.38;;;;;;;;;;6245830;23;20150;-84
2023/12/14 02:26:13;;;;;;;14.70;7.35;;;;;;;;;;6193871;23;20016;-84
2023/12/14 02:28:39;;;;;;;13.38;6.65;;;;;;;;;;6218980;23;20523;-84
2023/12/14 02:31:08;;;;;;;12.73;7.80;;;;;;;;;;6193686;23;20012;-84
2023/12/14 02:33:34;;;;;;;13.80;7.50;;;;;;;;;;6193714;23;20035;-84
2023/12/14 02:36:00;;;;;;;12.45;7.47;;;;;;;;;;6193623;23;20017;-84
2023/12/14 02:38:26;;;;;;;14.25;7.28;;;;;;;;;;6194016;23;20023;-84
2023/12/14 02:40:52;;;;;;;14.02;7.00;;;;;;;;;;6193742;23;20099;-84
2023/12/14 02:43:19;;;;;;;14.85;7.55;;;;;;;;;;6193736;23;20333;-84
2023/12/14 02:45:45;;;;;;;13.82;7.05;;;;;;;;;;6193904;23;20488;-84
2023/12/14 02:48:12;;;;;;;17.58;7.45;;;;;;;;;;6219387;23;20016;-84
2023/12/14 02:50:40;;;;;;;13.02;6.88;;;;;;;;;;6193707;23;20074;-84
2023/12/14 02:53:06;;;;;;;12.05;6.50;;;;;;;;;;6193754;23;20070;-84
2023/12/14 02:55:32;;;;;;;15.38;7.68;;;;;;;;;;6193673;23;20412;-84
2023/12/14 02:57:58;;;;;;;15.90;7.18;;;;;;;;;;6218795;23;20020;-84
2023/12/14 03:00:24;;;;;;;19.55;8.43;;;;;;;;;;6193060;23;20052;-84
2023/12/14 03:02:51;;;;;;;16.20;7.50;;;;;;;;;;6193272;23;20119;-84
2023/12/14 03:05:17;;;;;;;15.57;7.05;;;;;;;;;;6193476;23;20023;-84
2023/12/14 03:07:43;;;;;;;15.32;6.95;;;;;;;;;;6218199;23;20020;-84
2023/12/14 03:10:09;;;;;;;15.95;6.80;;;;;;;;;;6193512;23;20012;-84
2023/12/14 03:12:35;;;;;;;20.15;7.45;;;;;;;;;;6193431;23;20081;-85
2023/12/14 03:15:01;;;;;;;15.02;7.38;;;;;;;;;;6193344;23;20020;-84
2023/12/14 03:17:27;;;;;;;13.18;7.50;;;;;;;;;;6193404;23;20021;-84
2023/12/14 03:19:53;;;;;;;13.75;6.70;;;;;;;;;;6218125;23;20026;-84
2023/12/14 03:22:19;;;;;;;12.52;6.30;;;;;;;;;;6193846;23;20016;-84
2023/12/14 03:24:49;;;;;;;14.77;6.75;;;;;;;;;;6193216;23;20404;-84
2023/12/14 03:27:15;;;;;;;15.85;7.15;;;;;;;;;;6192633;23;20020;-84
2023/12/14 03:29:41;;;;;;;13.13;7.07;;;;;;;;;;6193253;23;20024;-84
2023/12/14 03:32:07;;;;;;;12.50;6.45;;;;;;;;;;6218740;23;20020;-84
2023/12/14 03:34:33;;;;;;;12.88;6.53;;;;;;;;;;6193223;23;20014;-84
2023/12/14 03:36:59;;;;;;;15.40;7.40;;;;;;;;;;6193434;23;20097;-84
2023/12/14 03:39:25;;;;;;;16.52;8.38;;;;;;;;;;6193510;23;20089;-84
2023/12/14 03:41:51;;;;;;;15.30;7.97;;;;;;;;;;6193934;23;20085;-84
2023/12/14 03:44:17;;;;;;;13.60;7.65;;;;;;;;;;6218198;23;20515;-84
2023/12/14 03:46:44;;;;;;;17.17;8.70;;;;;;;;;;6194227;23;20024;-84
2023/12/14 03:49:10;;;;;;;18.40;7.90;;;;;;;;;;6220002;23;20012;-84
2023/12/14 03:51:36;;;;;;;17.30;7.57;;;;;;;;;;6247366;23;20016;-84
2023/12/14 03:54:02;;;;;;;15.15;7.75;;;;;;;;;;6195274;23;20012;-84
2023/12/14 03:56:28;;;;;;;13.60;7.13;;;;;;;;;;6195182;23;20012;-84
2023/12/14 03:58:54;;;;;;;13.35;7.40;;;;;;;;;;6220144;23;20012;-84
2023/12/14 04:01:21;;;;;;;16.95;6.97;;;;;;;;;;6194883;23;20055;-84
2023/12/14 04:03:48;;;;;;;13.93;7.35;;;;;;;;;;6220259;23;20016;-84
2023/12/14 04:06:16;;;;;;;15.02;7.47;;;;;;;;;;6195356;23;20012;-84
2023/12/14 04:08:43;;;;;;;10.85;6.90;;;;;;;;;;6220286;23;20156;-84
2023/12/14 04:11:09;;;;;;;13.45;7.55;;;;;;;;;;6195326;23;20433;-84
2023/12/14 04:13:35;;;;;;;14.18;7.35;;;;;;;;;;6219739;23;20109;-84
2023/12/14 04:16:02;;;;;;;10.38;6.70;;;;;;;;;;6195154;23;20340;-84
2023/12/14 04:18:28;;;;;;;13.50;6.97;;;;;;;;;;6195144;23;20019;-84
2023/12/14 04:20:54;;;;;;;14.20;7.38;;;;;;;;;;6194813;23;20459;-84
2023/12/14 04:23:20;;;;;;;13.63;7.88;;;;;;;;;;6195068;23;20386;-84
2023/12/14 04:25:46;;;;;;;14.40;7.07;;;;;;;;;;6194786;23;20027;-85
2023/12/14 04:28:13;;;;;;;13.63;7.60;;;;;;;;;;6194822;23;20397;-84
2023/12/14 04:30:39;;;;;;;15.80;7.90;;;;;;;;;;6219223;23;20020;-85
2023/12/14 04:33:07;;;;;;;14.88;7.50;;;;;;;;;;6195059;23;20023;-84
2023/12/14 04:35:36;;;;;;;15.20;7.65;;;;;;;;;;6194573;23;20016;-84
2023/12/14 04:38:08;;;;;;;14.50;7.10;;;;;;;;;;6220591;23;20023;-85
2023/12/14 04:40:34;;;;;;;15.98;7.93;;;;;;;;;;6194827;23;20115;-84
2023/12/14 04:43:00;;;;;;;15.63;7.32;;;;;;;;;;6194392;23;20054;-84
2023/12/14 04:45:26;;;;;;;13.85;7.72;;;;;;;;;;6194401;23;20024;-84
2023/12/14 04:47:52;;;;;;;16.48;6.85;;;;;;;;;;6220292;23;20022;-84
2023/12/14 04:50:18;;;;;;;12.68;7.10;;;;;;;;;;6194450;23;20449;-84
2023/12/14 04:52:44;;;;;;;14.15;6.90;;;;;;;;;;6194647;23;20028;-84
2023/12/14 04:55:12;;;;;;;15.57;7.05;;;;;;;;;;6194930;23;20449;-84
2023/12/14 04:57:39;;;;;;;13.00;7.00;;;;;;;;;;6193475;23;20048;-84
2023/12/14 05:00:05;;;;;;;12.50;6.85;;;;;;;;;;6219550;23;20020;-84
2023/12/14 05:02:33;;;;;;;11.25;7.10;;;;;;;;;;6194088;23;20016;-84
2023/12/14 05:04:59;;;;;;;14.77;7.75;;;;;;;;;;6194398;23;20020;-84
2023/12/14 05:07:26;;;;;;;13.50;7.63;;;;;;;;;;6193517;23;20032;-84
2023/12/14 05:09:52;;;;;;;14.38;8.13;;;;;;;;;;6246341;23;20027;-85
2023/12/14 05:12:18;;;;;;;15.85;7.90;;;;;;;;;;6194730;23;20433;-85
2023/12/14 05:14:44;;;;;;;14.38;7.43;;;;;;;;;;6219398;23;20020;-85
2023/12/14 05:17:11;;;;;;;14.77;7.93;;;;;;;;;;6194507;23;20016;-84
2023/12/14 05:19:37;;;;;;;16.45;7.90;;;;;;;;;;6194340;23;20103;-85
2023/12/14 05:22:03;;;;;;;14.98;7.45;;;;;;;;;;6219377;23;20452;-84
2023/12/14 05:24:29;;;;;;;17.30;8.27;;;;;;;;;;6218493;23;20016;-84
2023/12/14 05:26:55;;;;;;;13.75;7.80;;;;;;;;;;6194423;23;20054;-84
2023/12/14 05:29:23;;;;;;;14.73;8.02;;;;;;;;;;6219454;23;20049;-84
2023/12/14 05:31:49;;;;;;;13.30;7.53;;;;;;;;;;6246309;23;20018;-84
2023/12/14 05:34:19;;;;;;;15.80;8.32;;;;;;;;;;6194175;23;20024;-84
2023/12/14 05:36:47;;;;;;;13.48;7.72;;;;;;;;;;6219871;23;20012;-84
2023/12/14 05:39:13;;;;;;;12.95;7.97;;;;;;;;;;6194095;23;20020;-85
2023/12/14 05:41:40;;;;;;;15.40;8.25;;;;;;;;;;6194277;23;20502;-84
2023/12/14 05:44:06;;;;;;;13.80;7.85;;;;;;;;;;6193921;23;20012;-84
2023/12/14 05:46:32;;;;;;;13.70;7.72;;;;;;;;;;6194427;23;20061;-84
2023/12/14 05:48:59;;;;;;;13.15;7.97;;;;;;;;;;6194205;23;20034;-84
2023/12/14 05:51:31;;;;;;;13.40;8.13;;;;;;;;;;6194408;23;20012;-85
2023/12/14 05:53:57;;;;;;;13.38;7.57;;;;;;;;;;6194130;23;20066;-84
2023/12/14 05:56:24;;;;;;;17.63;8.30;;;;;;;;;;6194242;23;20023;-84
2023/12/14 05:58:50;;;;;;;13.55;8.57;;;;;;;;;;6194018;23;20538;-84
2023/12/14 06:01:20;;;;;;;14.18;7.93;;;;;;;;;;6194050;23;20019;-84
2023/12/14 06:03:46;;;;;;;17.35;7.78;;;;;;;;;;6218550;23;20024;-84
2023/12/14 06:06:15;;;;;;;14.55;7.93;;;;;;;;;;6194071;23;20016;-84
2023/12/14 06:08:42;;;;;;;14.25;8.45;;;;;;;;;;6193778;23;20133;-85
2023/12/14 06:11:08;;;;;;;16.75;8.30;;;;;;;;;;6193702;23;20130;-85
2023/12/14 06:13:34;;;;;;;16.55;8.07;;;;;;;;;;6193683;23;20130;-85
2023/12/14 06:16:01;;;;;;;15.35;8.48;;;;;;;;;;6194419;23;20321;-84
2023/12/14 06:18:27;;;;;;;14.48;7.80;;;;;;;;;;6193293;23;20029;-84
2023/12/14 06:20:53;;;;;;;13.23;7.75;;;;;;;;;;6193820;23;20020;-84
2023/12/14 06:23:19;;;;;;;13.15;7.18;;;;;;;;;;6193438;23;20012;-84
2023/12/14 06:25:45;;;;;;;14.50;7.82;;;;;;;;;;6194331;23;20016;-85
2023/12/14 06:28:12;;;;;;;12.73;8.38;;;;;;;;;;6218614;23;20031;-84
2023/12/14 06:30:38;;;;;;;13.32;8.20;;;;;;;;;;6193219;23;20023;-84
2023/12/14 06:33:04;;;;;;;12.60;7.22;;;;;;;;;;6193793;23;20020;-85
2023/12/14 06:35:30;;;;;;;14.43;8.00;;;;;;;;;;6193775;23;20048;-85
2023/12/14 06:37:56;;;;;;;15.55;7.40;;;;;;;;;;6193488;23;20520;-84
2023/12/14 06:40:22;;;;;;;13.13;7.75;;;;;;;;;;6193876;23;20019;-84
2023/12/14 06:42:49;;;;;;;13.30;7.80;;;;;;;;;;6193317;23;20047;-84
2023/12/14 06:45:15;;;;;;;17.20;8.10;;;;;;;;;;6245854;23;20023;-84
2023/12/14 06:47:43;;;;;;;11.52;6.78;;;;;;;;;;6193592;23;20020;-85
2023/12/14 06:50:09;;;;;;;12.75;7.13;;;;;;;;;;6218186;23;20016;-84
2023/12/14 06:52:35;;;;;;;15.27;7.43;;;;;;;;;;6218359;23;20016;-84
2023/12/14 06:55:01;;;;;;;36.47;18.13;;;;;;;;;;6192999;23;20024;-84
2023/12/14 06:57:28;;;;;;;90.65;38.38;;;;;;;;;;6218449;23;20019;-84
2023/12/14 06:59:55;;;;;;;34.33;16.05;;;;;;;;;;6218538;23;20024;-84
2023/12/14 07:02:21;;;;;;;24.80;11.77;;;;;;;;;;6218288;23;20352;-84
2023/12/14 07:04:47;;;;;;;19.02;9.85;;;;;;;;;;6193446;23;20026;-84
2023/12/14 07:07:13;;;;;;;16.30;9.65;;;;;;;;;;6192995;23;20031;-85
2023/12/14 07:09:39;;;;;;;19.65;10.65;;;;;;;;;;6193821;23;20087;-84
2023/12/14 07:12:28;;;;;;;14.52;8.82;;;;;;;;;;6218434;23;20020;-87
2023/12/14 07:39:20;;;;;;;17.30;7.75;;;;;;;;;;6002928;23;20100;-85
2023/12/14 07:52:34;;;;;;;;;;;;;;;;;;;;;
2023/12/14 08:01:46;;;;;;;20.88;10.30;;;;;;;;;;6111369;23;20211;-85
2023/12/14 08:04:57;;;;;;;21.27;9.95;;;;;;;;;;6102513;23;20467;-85
2023/12/14 08:11:03;;;;;;;30.27;14.50;;;;;;;;;;6069111;23;20025;-86
2023/12/14 08:13:59;;;;;;;24.95;12.23;;;;;;;;;;6069382;23;20018;-85
2023/12/14 08:23:57;;;;;;;;;;;;;;;;;;;;;
2023/12/14 08:30:01;;;;;;;28.15;14.10;;;;;;;;;;6093193;23;20041;-83
2023/12/14 08:32:27;;;;;;;22.05;10.07;;;;;;;;;;6045242;23;20022;-82
2023/12/14 08:35:02;;;;;;;19.38;11.00;;;;;;;;;;6072668;23;20022;-83
2023/12/14 08:37:38;;;;;;;19.55;10.05;;;;;;;;;;6053385;23;20101;-84
2023/12/14 08:40:27;;;;;;;22.58;9.88;;;;;;;;;;6137501;23;20021;-84
2023/12/14 08:42:53;;;;;;;17.63;9.30;;;;;;;;;;6164999;23;20409;-83
2023/12/14 08:45:22;;;;;;;17.10;8.60;;;;;;;;;;6165111;23;20021;-83
2023/12/14 08:47:48;;;;;;;15.15;9.13;;;;;;;;;;6165547;23;20437;-84
2023/12/14 08:50:19;;;;;;;17.67;9.63;;;;;;;;;;6166749;23;20042;-83
2023/12/14 08:52:51;;;;;;;22.85;11.35;;;;;;;;;;6164737;23;20020;-85
2023/12/14 08:56:18;;;;;;;102.05;29.40;;;;;;;;;;6165405;23;20016;-85
2023/12/14 08:58:38;;;;;;;69.32;23.23;;;;;;;;;;6184165;23;20101;-84
2023/12/14 09:04:11;;;;;;;66.25;22.70;;;;;;;;;;6189000;23;20107;-87
2023/12/14 09:06:47;;;;;;;42.53;17.80;;;;;;;;;;6174083;22;20016;-85
2023/12/14 09:09:19;;;;;;;23.88;12.73;;;;;;;;;;6188219;23;20021;-87
2023/12/14 09:11:45;;;;;;;22.05;11.18;;;;;;;;;;6188367;23;20039;-85
2023/12/14 09:14:14;;;;;;;15.27;8.75;;;;;;;;;;6194191;23;20340;-84
2023/12/14 09:16:51;;;;;;;21.83;10.00;;;;;;;;;;6193976;23;20098;-85
2023/12/14 09:19:18;;;;;;;18.10;9.77;;;;;;;;;;6194516;23;20441;-84
2023/12/14 09:21:44;;;;;;;16.73;9.07;;;;;;;;;;6194722;23;20020;-84
2023/12/14 09:24:13;;;;;;;15.98;8.63;;;;;;;;;;6194431;23;20337;-84
2023/12/14 09:26:40;;;;;;;15.90;8.88;;;;;;;;;;6194326;23;20146;-84
2023/12/14 09:29:27;;;;;;;18.52;9.20;;;;;;;;;;6193887;23;20567;-84
2023/12/14 09:32:04;;;;;;;19.50;9.15;;;;;;;;;;6193526;23;20019;-84
2023/12/14 09:34:51;;;;;;;;;;;;;;;;;;6220255;23;20020;-83
2023/12/14 09:37:35;;;;;;;17.48;10.15;;;;;;;;;;6194469;23;19923;-84
2023/12/14 09:40:20;;;;;;;14.68;8.23;;;;;;;;;;6185479;23;20016;-83
2023/12/14 09:42:57;;;;;;;17.77;8.52;;;;;;;;;;6196102;23;20080;-83
2023/12/14 09:45:33;;;;;;;15.52;8.40;;;;;;;;;;6210196;23;20028;-84
2023/12/14 09:51:16;;;;;;;18.48;9.05;;;;;;;;;;6244821;23;20019;-83
2023/12/14 09:53:58;;;;;;;26.45;9.65;;;;;;;;;;6203439;23;20052;-84
2023/12/14 09:56:30;;;;;;;17.33;9.10;;;;;;;;;;6195234;23;20027;-84
2023/12/14 09:59:27;;;;;;;20.13;9.63;;;;;;;;;;6196438;23;20023;-84
2023/12/14 10:01:54;;;;;;;17.73;8.98;;;;;;;;;;6218737;23;20023;-84
2023/12/14 10:04:23;;;;;;;15.73;9.07;;;;;;;;;;6194429;23;20019;-84
2023/12/14 10:06:52;;;;;;;14.75;8.88;;;;;;;;;;6194196;23;20334;-84
2023/12/14 10:09:58;;;;;;;17.33;9.45;;;;;;;;;;6220313;23;20023;-83
2023/12/14 10:16:08;;;;;;;15.90;9.00;;;;;;;;;;6069199;23;20495;-84
2023/12/14 10:19:12;;;;;;;20.35;8.77;;;;;;;;;;6125948;23;20142;-84
2023/12/14 10:22:11;;;;;;;15.95;8.88;;;;;;;;;;6188312;23;20051;-84
2023/12/14 10:25:22;;;;;;;;;;;;;;;;;;;;;
2023/12/14 10:28:40;;;;;;;18.95;9.05;;;;;;;;;;6245314;23;20016;-84
2023/12/14 10:32:41;;;;;;;18.25;8.10;;;;;;;;;;6241621;23;20026;-84
2023/12/14 10:39:02;;;;;;;17.88;8.68;;;;;;;;;;6207459;23;20016;-84
2023/12/14 10:41:41;;;;;;;15.57;9.07;;;;;;;;;;6152835;23;20023;-83
2023/12/14 10:44:10;;;;;;;14.45;8.82;;;;;;;;;;6192525;23;20073;-84
2023/12/14 10:56:40;;;;;;;18.90;10.63;;;;;;;;;;6181854;23;20096;-85
2023/12/14 10:59:07;;;;;;;18.83;9.95;;;;;;;;;;6147755;23;20372;-85
2023/12/14 11:01:42;;;;;;;15.25;9.63;;;;;;;;;;6193666;23;20012;-84
2023/12/14 11:04:13;;;;;;;16.67;8.88;;;;;;;;;;6191549;23;20064;-85
2023/12/14 11:06:50;;;;;;;;;;;;;;;;;;;;;
2023/12/14 11:09:36;;;;;;;17.98;8.77;;;;;;;;;;6211802;23;20052;-84
2023/12/14 11:12:23;;;;;;;15.45;8.88;;;;;;;;;;6162920;23;20027;-84
2023/12/14 11:14:52;;;;;;;14.45;8.48;;;;;;;;;;6172930;23;20048;-84
2023/12/14 11:17:19;;;;;;;14.27;8.68;;;;;;;;;;6163783;23;20017;-84
2023/12/14 11:19:46;;;;;;;16.30;8.98;;;;;;;;;;6163501;23;20028;-84
2023/12/14 11:22:14;;;;;;;16.80;8.90;;;;;;;;;;6163824;23;20422;-83
2023/12/14 11:24:57;;;;;;;18.05;10.23;;;;;;;;;;6189199;23;20016;-85
2023/12/14 11:35:18;;;;;;;;;;;;;;;;;;;;;
2023/12/14 11:38:12;;;;;;;14.05;8.63;;;;;;;;;;6119606;23;20027;-85
2023/12/14 11:40:38;;;;;;;17.25;9.57;;;;;;;;;;6163463;23;20012;-84
2023/12/14 11:43:12;;;;;;;16.63;9.15;;;;;;;;;;6162958;23;20024;-84
2023/12/14 11:45:53;;;;;;;14.77;9.30;;;;;;;;;;6215101;23;20016;-85
2023/12/14 11:48:57;;;;;;;16.48;9.50;;;;;;;;;;6163807;23;20017;-85
2023/12/14 11:54:51;;;;;;;17.50;9.38;;;;;;;;;;6123390;23;20100;-85
2023/12/14 12:00:39;;;;;;;16.75;8.52;;;;;;;;;;6097381;23;20022;-85
2023/12/14 12:03:41;;;;;;;20.55;10.90;;;;;;;;;;6096946;23;20029;-85
2023/12/14 12:06:29;;;;;;;19.13;8.82;;;;;;;;;;5985524;23;20019;-85
2023/12/14 12:09:11;;;;;;;14.70;8.70;;;;;;;;;;6161504;23;20290;-85
2023/12/14 12:12:39;;;;;;;14.68;8.35;;;;;;;;;;6192141;23;20017;-85
2023/12/14 12:15:15;;;;;;;15.93;8.35;;;;;;;;;;6172084;23;20016;-85
2023/12/14 12:18:13;;;;;;;14.68;8.13;;;;;;;;;;6195552;23;20016;-85
2023/12/14 12:20:44;;;;;;;15.73;8.77;;;;;;;;;;6194342;23;20036;-85
2023/12/14 12:23:23;;;;;;;15.98;9.40;;;;;;;;;;6194351;23;20353;-85
2023/12/14 12:26:17;;;;;;;14.63;8.65;;;;;;;;;;6194088;23;20429;-84
2023/12/14 12:28:53;;;;;;;15.40;9.13;;;;;;;;;;6219199;23;20020;-85
2023/12/14 12:31:24;;;;;;;15.52;9.48;;;;;;;;;;6194522;23;20075;-85
2023/12/14 12:33:58;;;;;;;16.65;9.15;;;;;;;;;;6194110;23;20023;-85
2023/12/14 12:36:27;;;;;;;16.73;9.02;;;;;;;;;;6196069;23;20016;-85
2023/12/14 12:39:05;;;;;;;17.75;9.13;;;;;;;;;;6194590;23;20020;-85
2023/12/14 12:41:43;;;;;;;14.65;8.65;;;;;;;;;;6196885;23;20012;-85
2023/12/14 12:47:05;;;;;;;14.52;8.00;;;;;;;;;;6219943;23;20042;-85
2023/12/14 12:49:41;;;;;;;;;;;;;;;;;;6195854;23;20445;-85
2023/12/14 12:52:11;;;;;;;12.53;8.17;;;;;;;;;;6195325;23;19920;-85
2023/12/14 12:57:58;;;;;;;15.95;8.45;;;;;;;;;;6203416;23;20392;-85
2023/12/14 13:00:37;;;;;;;15.57;8.95;;;;;;;;;;6194025;23;20058;-85
2023/12/14 13:03:24;;;;;;;12.05;7.72;;;;;;;;;;6195074;23;20071;-85
2023/12/14 13:09:00;;;;;;;13.48;7.90;;;;;;;;;;6173242;23;20027;-85
2023/12/14 13:11:35;;;;;;;16.25;8.73;;;;;;;;;;6195001;23;20067;-85
2023/12/14 13:14:08;;;;;;;15.68;8.98;;;;;;;;;;6194552;23;20020;-85
2023/12/14 13:16:37;;;;;;;12.48;8.45;;;;;;;;;;6194158;23;20024;-84
2023/12/14 13:19:06;;;;;;;13.77;8.05;;;;;;;;;;6192877;23;20052;-85
2023/12/14 13:21:38;;;;;;;14.43;8.05;;;;;;;;;;6194838;23;20107;-85
2023/12/14 13:24:13;;;;;;;15.02;8.50;;;;;;;;;;6196038;23;20016;-85
2023/12/14 13:26:44;;;;;;;14.13;8.38;;;;;;;;;;6193708;23;20472;-85
2023/12/14 13:29:25;;;;;;;12.65;7.85;;;;;;;;;;6194658;23;20071;-85
2023/12/14 13:31:59;;;;;;;13.50;8.23;;;;;;;;;;6195541;23;20511;-85
2023/12/14 13:34:29;;;;;;;13.38;7.72;;;;;;;;;;6192940;23;20357;-85
2023/12/14 13:37:00;;;;;;;16.77;7.90;;;;;;;;;;6195191;23;20130;-85
2023/12/14 13:39:34;;;;;;;14.18;8.10;;;;;;;;;;6192992;23;20016;-85
2023/12/14 13:45:22;;;;;;;15.00;8.25;;;;;;;;;;6206763;23;20020;-85
2023/12/14 13:47:59;;;;;;;14.68;7.72;;;;;;;;;;6195064;23;20062;-84
2023/12/14 13:50:27;;;;;;;15.00;8.25;;;;;;;;;;6193881;23;20074;-84
2023/12/14 13:52:58;;;;;;;14.82;7.88;;;;;;;;;;6194375;23;20039;-84
2023/12/14 13:55:27;;;;;;;14.02;7.53;;;;;;;;;;6194362;23;20091;-84
2023/12/14 13:58:00;;;;;;;12.85;7.45;;;;;;;;;;6194286;23;20321;-83
2023/12/14 14:00:29;;;;;;;12.77;8.43;;;;;;;;;;6194528;23;20023;-83
2023/12/14 14:03:41;;;;;;;13.93;8.15;;;;;;;;;;6193661;23;20012;-84
2023/12/14 14:06:08;;;;;;;12.13;7.80;;;;;;;;;;6160413;23;20018;-83
2023/12/14 14:08:49;;;;;;;;;;;;;;;;;;;;;
2023/12/14 14:11:34;;;;;;;12.80;8.10;;;;;;;;;;6220396;23;20016;-83
2023/12/14 14:14:32;;;;;;;13.38;7.90;;;;;;;;;;6195368;23;20341;-83
2023/12/14 14:17:16;;;;;;;13.45;7.55;;;;;;;;;;6218086;23;20020;-83
2023/12/14 14:20:01;;;;;;;;;;;;;;;;;;;;;
2023/12/14 14:22:42;;;;;;;11.75;6.80;;;;;;;;;;6219079;23;20463;-83
2023/12/14 14:25:38;;;;;;;12.10;7.55;;;;;;;;;;6198309;23;20016;-83
2023/12/14 14:28:24;;;;;;;12.63;7.63;;;;;;;;;;6195059;23;20023;-83
2023/12/14 14:30:59;;;;;;;14.60;7.47;;;;;;;;;;6195945;23;20066;-83
2023/12/14 14:33:43;;;;;;;11.88;7.22;;;;;;;;;;6224041;23;20016;-83
2023/12/14 14:36:16;;;;;;;11.95;7.20;;;;;;;;;;6191038;23;20016;-83
2023/12/14 14:41:42;;;;;;;11.25;6.60;;;;;;;;;;6195465;23;20020;-83
2023/12/14 14:44:31;;;;;;;11.07;7.38;;;;;;;;;;6196349;23;20012;-83
2023/12/14 14:47:00;;;;;;;10.95;7.30;;;;;;;;;;6195601;23;20091;-83
2023/12/14 14:49:56;;;;;;;11.60;7.78;;;;;;;;;;6195851;23;20022;-83
2023/12/14 14:52:27;;;;;;;12.25;7.47;;;;;;;;;;6191689;23;20020;-83
2023/12/14 14:54:56;;;;;;;14.13;7.15;;;;;;;;;;6194510;23;20020;-87
2023/12/14 14:57:46;;;;;;;13.55;7.00;;;;;;;;;;6215061;23;20058;-82
2023/12/14 15:00:17;;;;;;;13.48;7.88;;;;;;;;;;6190475;23;20095;-84
2023/12/14 15:03:02;;;;;;;20.17;12.07;;;;;;;;;;6192906;23;20035;-84
2023/12/14 15:09:12;;;;;;;11.32;7.63;;;;;;;;;;6242244;23;20086;-86
2023/12/14 15:12:32;;;;;;;13.75;8.20;;;;;;;;;;6195335;23;20445;-85
2023/12/14 15:39:48;;;;;;;12.57;7.78;;;;;;;;;;6069281;23;20022;-84
2023/12/14 15:56:02;;;;;;;12.20;8.25;;;;;;;;;;6108062;23;20053;-83
2023/12/14 15:58:28;;;;;;;16.08;9.52;;;;;;;;;;6165246;23;20039;-85
2023/12/14 16:00:54;;;;;;;15.85;10.35;;;;;;;;;;6162981;23;20021;-84
2023/12/14 16:03:21;;;;;;;14.13;9.00;;;;;;;;;;6161373;23;20020;-83
2023/12/14 16:08:39;;;;;;;17.48;10.05;;;;;;;;;;6124203;23;20553;-83
2023/12/14 16:11:06;;;;;;;14.25;9.07;;;;;;;;;;6161613;23;20103;-84
2023/12/14 16:13:33;;;;;;;19.45;10.85;;;;;;;;;;6182660;23;20027;-83
2023/12/14 16:16:00;;;;;;;17.23;10.75;;;;;;;;;;6194140;23;20031;-83
2023/12/14 16:18:26;;;;;;;17.60;10.30;;;;;;;;;;6194277;23;20052;-83
2023/12/14 16:20:58;;;;;;;20.13;12.60;;;;;;;;;;6192602;23;20279;-84
2023/12/14 16:23:26;;;;;;;18.88;11.10;;;;;;;;;;6192178;23;20016;-83
2023/12/14 16:25:58;;;;;;;17.25;10.45;;;;;;;;;;6194192;23;20016;-83
2023/12/14 16:28:26;;;;;;;18.23;10.68;;;;;;;;;;6194803;23;20464;-83
2023/12/14 16:30:55;;;;;;;13.07;8.80;;;;;;;;;;6193498;23;20044;-83
2023/12/14 16:33:29;;;;;;;17.77;9.18;;;;;;;;;;6193384;23;20020;-83
2023/12/14 16:35:58;;;;;;;17.17;9.55;;;;;;;;;;6195393;23;20094;-83
2023/12/14 16:38:24;;;;;;;18.20;10.52;;;;;;;;;;6191674;23;20020;-83
2023/12/14 16:40:50;;;;;;;14.18;9.18;;;;;;;;;;6192716;23;20020;-83
2023/12/14 16:43:21;;;;;;;18.52;10.63;;;;;;;;;;6192709;23;20020;-83
2023/12/14 16:45:53;;;;;;;15.32;9.27;;;;;;;;;;6194323;23;20020;-83
2023/12/14 16:48:20;;;;;;;16.13;10.13;;;;;;;;;;6197054;23;20318;-83
2023/12/14 16:50:53;;;;;;;18.65;12.15;;;;;;;;;;6196725;23;20024;-83
2023/12/14 16:53:29;;;;;;;18.83;10.98;;;;;;;;;;6196171;23;20020;-83
2023/12/14 16:55:58;;;;;;;17.27;10.57;;;;;;;;;;6196429;23;20433;-86
2023/12/14 16:58:34;;;;;;;16.88;10.80;;;;;;;;;;6196669;23;20047;-83
2023/12/14 17:01:06;;;;;;;19.35;11.73;;;;;;;;;;6192702;23;20437;-83
2023/12/14 17:03:40;;;;;;;16.70;10.43;;;;;;;;;;6191210;23;20322;-84
2023/12/14 17:06:13;;;;;;;15.30;9.25;;;;;;;;;;6193082;23;20470;-84
2023/12/14 17:08:39;;;;;;;17.52;10.85;;;;;;;;;;6190506;23;20321;-83
2023/12/14 17:11:07;;;;;;;17.90;10.75;;;;;;;;;;6191484;23;20020;-83
2023/12/14 17:13:34;;;;;;;18.33;10.10;;;;;;;;;;6192509;23;20022;-84
2023/12/14 17:16:00;;;;;;;19.98;10.82;;;;;;;;;;6195959;23;20012;-83
2023/12/14 17:18:29;;;;;;;20.25;11.50;;;;;;;;;;6197011;23;20023;-83
2023/12/14 17:20:55;;;;;;;22.25;12.75;;;;;;;;;;6196509;23;20027;-83
2023/12/14 17:23:25;;;;;;;24.85;15.95;;;;;;;;;;6198043;23;20319;-83
2023/12/14 17:26:00;;;;;;;20.88;11.40;;;;;;;;;;6196155;23;20127;-84
2023/12/14 17:28:26;;;;;;;21.20;11.82;;;;;;;;;;6194952;23;20061;-83
2023/12/14 17:30:52;;;;;;;20.40;11.57;;;;;;;;;;6191859;23;20428;-84
2023/12/14 17:33:18;;;;;;;19.83;11.40;;;;;;;;;;6193773;23;20012;-84
2023/12/14 17:35:48;;;;;;;18.08;11.10;;;;;;;;;;6196312;23;20070;-83
2023/12/14 17:38:16;;;;;;;18.15;11.15;;;;;;;;;;6195780;23;20067;-82